Time;durP1;ratioP1;P1;durP2;ratioP2;P2;SDS_P1;SDS_P2;PMS_P1;PMS_P2;Temp;Humidity;BMP_temperature;BMP_pressure;BME280_temperature;BME280_humidity;BME280_pressure;Samples;Min_cycle;Max_cycle;Signal;HPM_P1;HPM_P2
2022/09/23 00:00:46;;;;;;;2.93;2.73;;;10.30;99.90;;;;;;5034343;28;20562;-81
2022/09/23 00:03:14;;;;;;;2.77;2.57;;;10.20;99.90;;;;;;5047683;28;20287;-82
2022/09/23 00:05:41;;;;;;;3.30;2.50;;;10.20;99.90;;;;;;5050744;28;20210;-82
2022/09/23 00:08:11;;;;;;;2.87;2.67;;;10.20;99.90;;;;;;5050813;28;20232;-83
2022/09/23 00:10:39;;;;;;;3.13;2.83;;;10.20;99.90;;;;;;5050756;28;20222;-83
2022/09/23 00:13:06;;;;;;;3.27;2.97;;;10.20;99.90;;;;;;5050123;28;20719;-83
2022/09/23 00:15:38;;;;;;;2.83;2.60;;;10.20;99.90;;;;;;5050564;28;20211;-83
2022/09/23 00:18:05;;;;;;;2.50;2.30;;;10.10;99.90;;;;;;5050532;28;20231;-83
2022/09/23 00:20:33;;;;;;;2.80;2.60;;;10.10;99.90;;;;;;5050101;28;20687;-83
2022/09/23 00:23:00;;;;;;;2.20;2.10;;;10.10;99.90;;;;;;5050780;28;20236;-81
2022/09/23 00:25:28;;;;;;;2.93;2.73;;;10.20;99.90;;;;;;5065064;28;20203;-82
2022/09/23 00:27:55;;;;;;;3.03;2.83;;;10.20;99.90;;;;;;5053842;28;20235;-81
2022/09/23 00:30:22;;;;;;;3.10;2.70;;;10.30;99.90;;;;;;5050206;28;20577;-80
2022/09/23 00:32:51;;;;;;;3.37;3.17;;;10.30;99.90;;;;;;5050305;28;20557;-80
2022/09/23 00:35:18;;;;;;;3.33;2.97;;;10.40;99.90;;;;;;5051177;28;20660;-83
2022/09/23 00:37:45;;;;;;;4.00;3.70;;;10.50;99.90;;;;;;5050508;28;20239;-82
2022/09/23 00:40:12;;;;;;;3.90;3.50;;;10.50;99.90;;;;;;5050085;28;20230;-82
2022/09/23 00:42:46;;;;;;;4.30;4.00;;;10.60;99.90;;;;;;5039467;28;20201;-81
2022/09/23 00:45:13;;;;;;;4.53;3.83;;;10.60;99.90;;;;;;5049878;28;20266;-81
2022/09/23 00:47:46;;;;;;;4.60;4.23;;;10.70;99.90;;;;;;5049149;28;20235;-81
2022/09/23 00:50:21;;;;;;;5.13;4.13;;;10.70;99.90;;;;;;5049288;28;20200;-81
2022/09/23 00:52:49;;;;;;;4.57;4.27;;;10.70;99.90;;;;;;5049320;28;20218;-81
2022/09/23 00:55:19;;;;;;;4.63;4.23;;;10.80;99.90;;;;;;5051428;28;20570;-82
2022/09/23 00:57:47;;;;;;;5.87;4.80;;;10.80;99.90;;;;;;5048728;28;20666;-83
2022/09/23 01:00:14;;;;;;;4.87;4.40;;;10.80;99.90;;;;;;5048372;28;20214;-83
2022/09/23 01:02:41;;;;;;;4.80;4.20;;;10.70;99.90;;;;;;5043165;28;20296;-80
2022/09/23 01:05:10;;;;;;;4.43;4.03;;;10.70;99.90;;;;;;5029827;28;20589;-82
2022/09/23 01:07:38;;;;;;;4.37;4.07;;;10.70;99.90;;;;;;5049180;28;20281;-82
2022/09/23 01:10:07;;;;;;;5.17;4.40;;;10.70;99.90;;;;;;5049219;28;20204;-80
2022/09/23 01:12:55;;;;;;;4.63;4.23;;;10.70;99.90;;;;;;5049087;28;20212;-81
2022/09/23 01:15:25;;;;;;;4.60;4.07;;;10.70;99.90;;;;;;5046579;28;20212;-82
2022/09/23 01:18:03;;;;;;;5.03;4.20;;;10.70;99.90;;;;;;5048738;28;20232;-81
2022/09/23 01:21:15;;;;;;;4.03;3.70;;;10.70;99.90;;;;;;5048079;28;20196;-82
2022/09/23 01:24:25;;;;;;;4.30;4.00;;;10.60;99.90;;;;;;4974779;28;20234;-82
2022/09/23 01:27:05;;;;;;;4.10;3.80;;;10.60;99.90;;;;;;5049532;28;20671;-82
2022/09/23 01:30:07;;;;;;;4.17;3.87;;;10.60;99.90;;;;;;5049546;28;20218;-82
2022/09/23 01:32:45;;;;;;;4.60;4.20;;;10.60;99.90;;;;;;5048812;28;20200;-83
2022/09/23 01:35:23;;;;;;;3.93;3.20;;;10.50;99.90;;;;;;5048225;28;20192;-81
2022/09/23 01:37:59;;;;;;;3.43;3.20;;;10.50;99.90;;;;;;5048819;28;20254;-82
2022/09/23 01:40:33;;;;;;;3.90;3.60;;;10.40;99.90;;;;;;5048572;28;20196;-81
2022/09/23 01:43:06;;;;;;;3.60;3.30;;;10.30;99.90;;;;;;5048751;28;20562;-81
2022/09/23 01:45:37;;;;;;;4.00;3.60;;;10.20;99.90;;;;;;5047717;28;20207;-81
2022/09/23 01:48:12;;;;;;;4.07;3.60;;;10.20;99.90;;;;;;5028805;28;20225;-81
2022/09/23 01:50:56;;;;;;;4.33;3.50;;;10.00;99.90;;;;;;5028479;28;20196;-82
2022/09/23 01:53:30;;;;;;;4.23;3.53;;;10.00;99.90;;;;;;5028646;28;20212;-81
2022/09/23 01:56:01;;;;;;;3.80;3.50;;;10.00;99.90;;;;;;5048135;28;20291;-79
2022/09/23 01:58:35;;;;;;;4.03;3.70;;;9.90;99.90;;;;;;5047008;28;20204;-81
2022/09/23 02:01:05;;;;;;;3.90;3.60;;;9.90;99.90;;;;;;5046108;28;20204;-79
2022/09/23 02:03:37;;;;;;;3.97;3.57;;;10.00;99.90;;;;;;5047807;28;20286;-79
2022/09/23 02:06:10;;;;;;;3.90;3.60;;;9.90;99.90;;;;;;5047871;28;20202;-80
2022/09/23 02:08:42;;;;;;;4.67;4.13;;;9.90;99.90;;;;;;5047869;28;20228;-81
2022/09/23 02:11:12;;;;;;;6.30;3.70;;;9.90;99.90;;;;;;5047916;28;20211;-84
2022/09/23 02:13:46;;;;;;;4.23;3.50;;;9.80;99.90;;;;;;5048440;28;20238;-82
2022/09/23 02:16:21;;;;;;;4.10;3.80;;;9.80;99.90;;;;;;5044562;28;20200;-83
2022/09/23 02:18:52;;;;;;;3.93;3.60;;;9.80;99.90;;;;;;5041902;28;20227;-84
2022/09/23 02:21:24;;;;;;;4.67;3.67;;;9.70;99.90;;;;;;5041025;28;20658;-80
2022/09/23 02:23:57;;;;;;;4.03;3.73;;;9.60;99.90;;;;;;5039445;28;20615;-84
2022/09/23 02:26:30;;;;;;;3.90;3.60;;;9.60;99.90;;;;;;5068128;28;20195;-79
2022/09/23 02:29:06;;;;;;;4.23;3.87;;;9.50;99.90;;;;;;5051828;28;20260;-81
2022/09/23 02:31:38;;;;;;;4.00;3.70;;;9.50;99.90;;;;;;5046064;28;20237;-80
2022/09/23 02:34:17;;;;;;;3.87;3.57;;;9.40;99.90;;;;;;5045867;28;20658;-81
2022/09/23 02:36:51;;;;;;;4.17;3.67;;;9.40;99.90;;;;;;5046814;28;20230;-80
2022/09/23 02:39:22;;;;;;;4.03;3.70;;;9.30;99.90;;;;;;5047208;28;20235;-75
2022/09/23 02:41:56;;;;;;;4.17;3.87;;;9.30;99.90;;;;;;5044693;28;20306;-78
2022/09/23 02:44:24;;;;;;;4.80;4.03;;;9.20;99.90;;;;;;5046082;28;20666;-81
2022/09/23 02:46:52;;;;;;;4.37;3.70;;;9.20;99.90;;;;;;5037464;28;20212;-84
2022/09/23 02:49:23;;;;;;;4.07;3.77;;;9.20;99.90;;;;;;5026165;28;20817;-82
2022/09/23 02:51:51;;;;;;;4.10;3.80;;;9.20;99.90;;;;;;5034804;28;20208;-83
2022/09/23 02:54:22;;;;;;;5.10;3.90;;;9.20;99.90;;;;;;5035448;28;20200;-85
2022/09/23 02:56:49;;;;;;;4.00;3.70;;;9.20;99.90;;;;;;5036244;28;20215;-82
2022/09/23 02:59:18;;;;;;;4.13;3.73;;;9.30;99.90;;;;;;5046571;28;20633;-88
2022/09/23 03:02:07;;;;;;;4.30;4.00;;;9.30;99.90;;;;;;5047712;28;20211;-83
2022/09/23 03:04:47;;;;;;;3.50;3.30;;;9.40;99.90;;;;;;5044714;28;20208;-80
2022/09/23 03:07:17;;;;;;;3.93;3.60;;;9.40;99.90;;;;;;5047673;28;20306;-79
2022/09/23 03:09:54;;;;;;;4.00;3.70;;;9.40;99.90;;;;;;5050587;28;20231;-81
2022/09/23 03:12:30;;;;;;;3.90;3.67;;;9.30;99.90;;;;;;5050197;28;20408;-80
2022/09/23 03:15:05;;;;;;;3.77;3.47;;;9.40;99.90;;;;;;5048543;28;20221;-80
2022/09/23 03:17:39;;;;;;;4.03;3.73;;;9.30;99.90;;;;;;5050680;28;20228;-79
2022/09/23 03:20:12;;;;;;;3.90;3.40;;;9.20;99.90;;;;;;5050909;28;20200;-80
2022/09/23 03:22:45;;;;;;;3.80;3.50;;;9.20;99.90;;;;;;5050404;28;20200;-79
2022/09/23 03:25:16;;;;;;;4.30;4.00;;;9.10;99.90;;;;;;5050230;28;20212;-80
2022/09/23 03:27:44;;;;;;;3.97;3.70;;;9.10;99.90;;;;;;5031615;28;20193;-78
2022/09/23 03:30:12;;;;;;;3.83;3.60;;;9.00;99.90;;;;;;5030989;28;20208;-88
2022/09/23 03:32:43;;;;;;;4.30;3.90;;;8.90;99.90;;;;;;5041908;28;20239;-75
2022/09/23 03:35:13;;;;;;;4.20;3.80;;;8.90;99.90;;;;;;5050131;28;20200;-76
2022/09/23 03:37:46;;;;;;;4.00;3.70;;;8.90;99.90;;;;;;5050646;28;20212;-80
2022/09/23 03:40:18;;;;;;;3.90;3.63;;;8.80;99.90;;;;;;5048948;28;20211;-77
2022/09/23 03:42:47;;;;;;;4.13;3.83;;;8.80;99.90;;;;;;5050038;28;20287;-79
2022/09/23 03:45:18;;;;;;;4.37;3.93;;;8.90;99.90;;;;;;5050750;28;20212;-79
2022/09/23 03:47:45;;;;;;;4.37;3.90;;;8.80;99.90;;;;;;5050942;28;21049;-79
2022/09/23 03:50:16;;;;;;;3.73;3.43;;;8.80;99.90;;;;;;5050593;28;20211;-78
2022/09/23 03:52:43;;;;;;;4.53;4.20;;;8.80;99.90;;;;;;5051191;28;20200;-78
2022/09/23 03:55:11;;;;;;;4.50;4.20;;;8.80;99.90;;;;;;5063524;28;20674;-78
2022/09/23 03:57:38;;;;;;;3.93;3.67;;;8.80;99.90;;;;;;5071107;28;20214;-78
2022/09/23 04:00:06;;;;;;;4.93;4.50;;;8.70;99.90;;;;;;5071345;28;20225;-79
2022/09/23 04:02:33;;;;;;;5.13;4.63;;;8.70;99.90;;;;;;5070820;28;20207;-79
2022/09/23 04:05:00;;;;;;;4.37;4.07;;;8.70;99.90;;;;;;5070599;28;20211;-88
2022/09/23 04:07:28;;;;;;;4.20;4.00;;;8.70;99.90;;;;;;5070694;28;20204;-86
2022/09/23 04:09:54;;;;;;;4.67;4.37;;;8.80;99.90;;;;;;5070744;28;20239;-83
2022/09/23 04:12:21;;;;;;;5.63;4.93;;;8.80;99.90;;;;;;5070701;28;20209;-81
2022/09/23 04:14:48;;;;;;;5.20;4.80;;;8.80;99.90;;;;;;5069819;28;20203;-81
2022/09/23 04:17:15;;;;;;;4.63;4.03;;;8.70;99.90;;;;;;5070073;28;20231;-82
2022/09/23 04:19:43;;;;;;;5.00;4.70;;;8.70;99.90;;;;;;5070864;28;20265;-86
2022/09/23 04:22:11;;;;;;;4.73;4.33;;;8.60;99.90;;;;;;5044614;28;20212;-83
2022/09/23 04:24:39;;;;;;;5.13;4.60;;;8.40;99.90;;;;;;5049480;28;20279;-83
2022/09/23 04:27:06;;;;;;;4.97;4.60;;;8.40;99.90;;;;;;5038669;28;20847;-81
2022/09/23 04:29:35;;;;;;;5.23;4.73;;;8.40;99.90;;;;;;5046207;28;20755;-80
2022/09/23 04:32:02;;;;;;;8.10;4.90;;;8.40;99.90;;;;;;5049478;28;20204;-84
2022/09/23 04:34:28;;;;;;;5.17;4.77;;;8.40;99.90;;;;;;5049516;28;20208;-84
2022/09/23 04:36:55;;;;;;;5.50;5.00;;;8.40;99.90;;;;;;5049698;28;20215;-81
2022/09/23 04:39:22;;;;;;;5.33;4.83;;;8.40;99.90;;;;;;5048697;28;20207;-77
2022/09/23 04:41:50;;;;;;;5.20;4.80;;;8.40;99.90;;;;;;5041175;28;20209;-76
2022/09/23 04:44:17;;;;;;;5.43;5.03;;;8.40;99.90;;;;;;5037173;28;20594;-78
2022/09/23 04:46:46;;;;;;;5.40;4.90;;;8.30;99.90;;;;;;5038431;28;20762;-68
2022/09/23 04:49:13;;;;;;;4.93;4.60;;;8.30;99.90;;;;;;5048000;28;20319;-68
2022/09/23 04:51:42;;;;;;;5.40;4.90;;;8.30;99.90;;;;;;5047699;28;20200;-69
2022/09/23 04:54:09;;;;;;;5.30;4.90;;;8.30;99.90;;;;;;5052973;28;20207;-68
2022/09/23 04:56:36;;;;;;;4.93;4.50;;;8.40;99.90;;;;;;5068982;28;20211;-68
2022/09/23 04:59:05;;;;;;;5.00;4.60;;;8.30;99.90;;;;;;5068675;28;20704;-68
2022/09/23 05:01:35;;;;;;;5.30;4.80;;;8.30;99.90;;;;;;5068407;28;20227;-68
2022/09/23 05:04:04;;;;;;;4.80;4.40;;;8.30;99.90;;;;;;5062294;28;20589;-67
2022/09/23 05:06:33;;;;;;;6.10;4.87;;;8.40;99.90;;;;;;5039075;28;20208;-67
2022/09/23 05:09:00;;;;;;;5.13;4.73;;;8.30;99.90;;;;;;5037335;28;20239;-67
2022/09/23 05:11:30;;;;;;;4.87;4.37;;;8.30;99.90;;;;;;5036404;28;20679;-67
2022/09/23 05:13:57;;;;;;;5.40;4.60;;;8.30;99.90;;;;;;5039194;28;20200;-67
2022/09/23 05:16:25;;;;;;;4.97;4.57;;;8.30;99.90;;;;;;5036593;28;20197;-67
2022/09/23 05:18:52;;;;;;;5.70;5.10;;;8.40;99.90;;;;;;5048461;28;20546;-67
2022/09/23 05:21:21;;;;;;;5.03;4.63;;;8.40;99.90;;;;;;5047797;28;20599;-67
2022/09/23 05:23:48;;;;;;;4.87;4.53;;;8.40;99.90;;;;;;5045036;28;20232;-67
2022/09/23 05:26:15;;;;;;;5.33;4.83;;;8.40;99.90;;;;;;5036914;28;20195;-67
2022/09/23 05:28:42;;;;;;;4.60;4.20;;;8.50;99.90;;;;;;5033741;28;20236;-67
2022/09/23 05:31:12;;;;;;;4.57;4.27;;;8.50;99.90;;;;;;5032097;28;20197;-67
2022/09/23 05:33:40;;;;;;;5.33;4.93;;;8.60;99.90;;;;;;5027856;28;20635;-67
2022/09/23 05:36:08;;;;;;;4.40;4.00;;;8.70;99.90;;;;;;5028203;28;20204;-67
2022/09/23 05:38:35;;;;;;;4.50;4.20;;;8.80;99.90;;;;;;5028137;28;20566;-67
2022/09/23 05:41:04;;;;;;;5.00;4.50;;;8.90;99.90;;;;;;5046135;28;20220;-67
2022/09/23 05:43:31;;;;;;;4.43;4.13;;;9.00;99.90;;;;;;5044898;28;20213;-67
2022/09/23 05:46:02;;;;;;;4.83;4.37;;;9.10;99.90;;;;;;5036972;28;20193;-67
2022/09/23 05:48:30;;;;;;;4.77;4.37;;;9.20;99.90;;;;;;5036328;28;20193;-67
2022/09/23 05:50:58;;;;;;;4.30;4.00;;;9.20;99.90;;;;;;5042129;28;20653;-67
2022/09/23 05:53:25;;;;;;;4.43;4.13;;;9.30;99.90;;;;;;5041571;28;20200;-67
2022/09/23 05:55:53;;;;;;;4.70;4.10;;;9.30;99.90;;;;;;5047642;28;20231;-67
2022/09/23 05:58:20;;;;;;;4.23;3.93;;;9.30;99.90;;;;;;5045765;28;20220;-67
2022/09/23 06:00:48;;;;;;;4.43;4.03;;;9.30;99.90;;;;;;5037956;28;20208;-66
2022/09/23 06:03:16;;;;;;;3.90;3.70;;;9.40;99.90;;;;;;5032242;28;20817;-66
2022/09/23 06:05:43;;;;;;;4.17;3.87;;;9.40;99.90;;;;;;5025924;28;20197;-67
2022/09/23 06:08:11;;;;;;;4.10;3.80;;;9.40;99.90;;;;;;5026463;28;20209;-68
2022/09/23 06:10:38;;;;;;;4.37;4.00;;;9.50;99.90;;;;;;5026958;28;20751;-67
2022/09/23 06:13:05;;;;;;;5.17;4.17;;;9.50;99.90;;;;;;5033745;28;20208;-68
2022/09/23 06:15:32;;;;;;;4.03;3.73;;;9.50;99.90;;;;;;5047313;28;20203;-67
2022/09/23 06:17:59;;;;;;;3.50;3.30;;;9.60;99.90;;;;;;5046941;28;20228;-67
2022/09/23 06:20:26;;;;;;;3.83;3.53;;;9.60;99.90;;;;;;5046911;28;20291;-68
2022/09/23 06:22:53;;;;;;;3.87;3.57;;;9.60;99.90;;;;;;5046965;28;20248;-68
2022/09/23 06:25:21;;;;;;;3.97;3.67;;;9.70;99.90;;;;;;5053897;28;20275;-67
2022/09/23 06:27:54;;;;;;;4.30;3.53;;;9.70;99.90;;;;;;5043208;28;20243;-67
2022/09/23 06:30:23;;;;;;;3.50;3.20;;;9.70;99.90;;;;;;5028582;28;20274;-68
2022/09/23 06:32:51;;;;;;;3.50;3.30;;;9.80;99.90;;;;;;5027300;28;20288;-67
2022/09/23 06:35:18;;;;;;;2.83;2.70;;;9.80;99.90;;;;;;5029511;28;20204;-67
2022/09/23 06:37:45;;;;;;;3.30;3.10;;;9.80;99.90;;;;;;5047293;28;20230;-67
2022/09/23 06:40:13;;;;;;;3.37;3.17;;;9.90;99.90;;;;;;5048943;28;20227;-68
2022/09/23 06:42:42;;;;;;;4.70;3.60;;;9.90;99.90;;;;;;5050257;28;20261;-71
2022/09/23 06:45:11;;;;;;;3.30;3.00;;;10.00;99.90;;;;;;5038450;28;20242;-75
2022/09/23 06:47:38;;;;;;;3.70;3.00;;;10.10;99.90;;;;;;5050627;28;20215;-72
2022/09/23 06:50:06;;;;;;;3.47;3.17;;;10.10;99.90;;;;;;5049541;28;20234;-70
2022/09/23 06:52:35;;;;;;;3.10;2.90;;;10.20;99.90;;;;;;5040538;28;20569;-70
2022/09/23 06:55:02;;;;;;;3.60;3.13;;;10.30;99.90;;;;;;5043209;28;20288;-71
2022/09/23 06:57:29;;;;;;;3.27;2.97;;;10.30;99.90;;;;;;5038588;28;20227;-71
2022/09/23 06:59:58;;;;;;;3.40;3.20;;;10.40;99.90;;;;;;5049468;28;20207;-70
2022/09/23 07:02:24;;;;;;;3.83;3.00;;;10.40;99.90;;;;;;5050416;28;20219;-71
2022/09/23 07:04:51;;;;;;;3.03;2.83;;;10.50;99.90;;;;;;5050758;28;20622;-71
2022/09/23 07:07:18;;;;;;;4.03;3.60;;;10.60;99.90;;;;;;5048663;28;20204;-71
2022/09/23 07:09:45;;;;;;;3.17;2.97;;;10.60;99.90;;;;;;5050277;28;20236;-71
2022/09/23 07:12:12;;;;;;;3.13;2.93;;;10.60;99.90;;;;;;5050251;28;20212;-71
2022/09/23 07:14:39;;;;;;;2.80;2.60;;;10.70;99.90;;;;;;5050767;28;20227;-71
2022/09/23 07:17:07;;;;;;;3.30;3.00;;;10.80;99.90;;;;;;5043604;28;20268;-72
2022/09/23 07:19:35;;;;;;;3.60;3.30;;;10.80;99.90;;;;;;5030334;28;20213;-71
2022/09/23 07:22:01;;;;;;;3.40;3.10;;;10.90;99.90;;;;;;5030395;28;20694;-72
2022/09/23 07:24:28;;;;;;;3.43;3.23;;;11.00;99.90;;;;;;5055421;28;20656;-72
2022/09/23 07:26:55;;;;;;;3.53;3.23;;;11.00;99.90;;;;;;5070306;28;21003;-72
2022/09/23 07:29:22;;;;;;;3.60;3.40;;;11.10;99.90;;;;;;5070254;28;20231;-72
2022/09/23 07:31:49;;;;;;;3.93;3.23;;;11.10;99.90;;;;;;5065748;28;20208;-72
2022/09/23 07:34:17;;;;;;;3.30;3.10;;;11.20;99.90;;;;;;5050240;28;20208;-72
2022/09/23 07:36:44;;;;;;;3.27;3.07;;;11.30;99.90;;;;;;5049760;28;20730;-72
2022/09/23 07:39:12;;;;;;;3.50;3.20;;;11.30;99.90;;;;;;5050237;28;20204;-72
2022/09/23 07:41:40;;;;;;;3.40;3.20;;;11.40;99.90;;;;;;5049943;28;20216;-72
2022/09/23 07:44:07;;;;;;;2.93;2.83;;;11.40;99.90;;;;;;5050142;28;20208;-72
2022/09/23 07:46:36;;;;;;;3.20;3.00;;;11.50;99.90;;;;;;5050020;28;20204;-72
2022/09/23 07:49:03;;;;;;;3.10;2.90;;;11.50;99.90;;;;;;5050206;28;20212;-70
2022/09/23 07:51:33;;;;;;;3.63;3.10;;;11.60;99.90;;;;;;5048682;28;20660;-70
2022/09/23 07:54:00;;;;;;;3.20;3.00;;;11.70;99.90;;;;;;5049869;28;20220;-70
2022/09/23 07:56:29;;;;;;;3.00;2.73;;;11.70;99.90;;;;;;5045461;28;20207;-71
2022/09/23 07:59:03;;;;;;;3.10;2.90;;;11.80;99.90;;;;;;5049959;28;20208;-70
2022/09/23 08:01:32;;;;;;;3.17;2.90;;;11.80;99.90;;;;;;5038552;28;20193;-71
2022/09/23 08:04:00;;;;;;;3.40;3.20;;;11.90;99.90;;;;;;5029671;28;20227;-72
2022/09/23 08:06:27;;;;;;;3.43;3.00;;;11.90;99.90;;;;;;5043104;28;20225;-72
2022/09/23 08:08:57;;;;;;;6.03;3.27;;;12.00;99.90;;;;;;5043887;28;20296;-72
2022/09/23 08:11:24;;;;;;;3.20;3.00;;;12.00;99.90;;;;;;5046706;28;20309;-72
2022/09/23 08:13:51;;;;;;;3.20;3.00;;;12.10;99.90;;;;;;5048881;28;20208;-72
2022/09/23 08:16:18;;;;;;;3.20;3.00;;;12.10;99.90;;;;;;5049087;28;20211;-72
2022/09/23 08:18:46;;;;;;;3.40;3.10;;;12.20;99.90;;;;;;5029516;28;20212;-71
2022/09/23 08:21:13;;;;;;;2.87;2.67;;;12.20;99.90;;;;;;5029327;28;20213;-72
2022/09/23 08:23:39;;;;;;;2.80;2.60;;;12.30;99.90;;;;;;5041266;28;20236;-72
2022/09/23 08:26:07;;;;;;;3.50;2.67;;;12.30;99.90;;;;;;5029733;28;20216;-72
2022/09/23 08:28:34;;;;;;;3.30;2.77;;;12.40;99.90;;;;;;5037946;28;20204;-72
2022/09/23 08:31:01;;;;;;;2.73;2.53;;;12.50;99.90;;;;;;5046486;28;20235;-71
2022/09/23 08:33:28;;;;;;;4.77;2.77;;;12.50;99.90;;;;;;5049369;28;20216;-71
2022/09/23 08:35:59;;;;;;;2.70;2.60;;;12.60;99.90;;;;;;5049119;28;20219;-71
2022/09/23 08:38:27;;;;;;;2.50;2.13;;;12.60;99.90;;;;;;5048772;28;20193;-71
2022/09/23 08:41:02;;;;;;;2.50;2.30;;;12.70;99.90;;;;;;5042631;28;20212;-71
2022/09/23 08:43:33;;;;;;;2.20;2.00;;;12.70;99.90;;;;;;5049093;28;20202;-71
2022/09/23 08:46:03;;;;;;;3.23;2.60;;;12.70;99.90;;;;;;5036867;28;20663;-72
2022/09/23 08:48:33;;;;;;;3.27;2.40;;;12.80;99.90;;;;;;5039360;28;20207;-71
2022/09/23 08:51:04;;;;;;;2.50;2.30;;;12.90;99.90;;;;;;5037521;28;20228;-71
2022/09/23 08:53:34;;;;;;;2.80;2.60;;;13.00;99.90;;;;;;5041216;28;20203;-71
2022/09/23 08:56:05;;;;;;;2.50;2.30;;;13.10;99.90;;;;;;5042649;28;20257;-71
2022/09/23 08:58:52;;;;;;;2.57;2.37;;;13.10;99.90;;;;;;5031634;28;20235;-70
2022/09/23 09:01:26;;;;;;;2.57;2.23;;;13.20;99.90;;;;;;5049497;28;20200;-70
2022/09/23 09:03:55;;;;;;;2.20;2.10;;;13.30;99.90;;;;;;5039894;28;20212;-71
2022/09/23 09:06:29;;;;;;;2.27;2.07;;;13.30;99.90;;;;;;5040584;28;20233;-71
2022/09/23 09:09:00;;;;;;;2.60;2.40;;;13.40;99.90;;;;;;5029200;28;20228;-71
2022/09/23 09:11:34;;;;;;;2.23;2.03;;;13.50;99.90;;;;;;5047161;28;20227;-71
2022/09/23 09:14:12;;;;;;;2.70;2.50;;;13.60;99.90;;;;;;5034184;28;20227;-72
2022/09/23 09:16:55;;;;;;;2.70;2.50;;;13.60;99.90;;;;;;5027993;28;20220;-72
2022/09/23 09:19:54;;;;;;;2.60;2.40;;;13.70;99.90;;;;;;5028094;28;20193;-72
2022/09/23 09:22:29;;;;;;;2.40;2.20;;;13.70;99.90;;;;;;5024199;28;20636;-71
2022/09/23 09:25:00;;;;;;;2.57;2.43;;;13.80;99.90;;;;;;5048005;28;20210;-72
2022/09/23 09:27:27;;;;;;;2.97;2.20;;;13.80;99.90;;;;;;5046765;28;20196;-72
2022/09/23 09:29:57;;;;;;;2.67;2.37;;;13.90;99.90;;;;;;5046883;28;20259;-71
2022/09/23 09:32:46;;;;;;;2.57;2.37;;;14.00;99.90;;;;;;5046548;28;20212;-71
2022/09/23 09:35:22;;;;;;;3.70;2.70;;;14.10;99.90;;;;;;5046848;28;20208;-71
2022/09/23 09:37:49;;;;;;;2.83;2.57;;;14.20;99.90;;;;;;5047491;28;20227;-72
2022/09/23 09:40:16;;;;;;;2.80;2.60;;;14.30;99.90;;;;;;5047738;28;20380;-71
2022/09/23 09:42:47;;;;;;;2.20;2.10;;;14.30;99.90;;;;;;5047634;28;20216;-71
2022/09/23 09:45:25;;;;;;;1.93;1.83;;;14.40;99.90;;;;;;5047676;28;20294;-71
2022/09/23 09:48:01;;;;;;;2.53;2.10;;;14.50;99.90;;;;;;5047763;28;20250;-72
2022/09/23 09:50:48;;;;;;;2.00;1.80;;;14.70;99.90;;;;;;5047505;28;20220;-72
2022/09/23 09:53:23;;;;;;;2.67;1.80;;;14.70;99.90;;;;;;5047386;28;20678;-72
2022/09/23 09:56:02;;;;;;;1.70;1.60;;;14.80;99.90;;;;;;5047457;28;20304;-72
2022/09/23 09:58:42;;;;;;;1.83;1.40;;;14.80;99.90;;;;;;5048160;28;20208;-73
2022/09/23 10:01:19;;;;;;;1.77;1.63;;;14.80;99.90;;;;;;5047762;28;20196;-72
2022/09/23 10:03:46;;;;;;;1.73;1.20;;;14.90;99.90;;;;;;5047228;28;20554;-72
2022/09/23 10:06:23;;;;;;;1.27;1.20;;;15.00;99.90;;;;;;5047385;28;20204;-72
2022/09/23 10:09:09;;;;;;;1.70;1.60;;;15.00;99.90;;;;;;5047631;28;20246;-72
2022/09/23 10:11:36;;;;;;;1.90;1.50;;;15.20;99.90;;;;;;5047517;28;20220;-72
2022/09/23 10:14:12;;;;;;;1.60;1.50;;;15.20;99.90;;;;;;5032665;28;20642;-72
2022/09/23 10:16:41;;;;;;;1.50;1.40;;;15.30;99.90;;;;;;5026057;28;20277;-72
2022/09/23 10:19:24;;;;;;;1.70;1.60;;;15.40;99.90;;;;;;5027410;28;20208;-72
2022/09/23 10:21:58;;;;;;;1.90;1.80;;;15.50;99.90;;;;;;5041910;28;20387;-72
2022/09/23 10:24:29;;;;;;;2.17;1.40;;;15.60;99.90;;;;;;5053039;28;21075;-72
2022/09/23 10:27:01;;;;;;;1.53;1.30;;;15.60;99.90;;;;;;5067740;28;20223;-72
2022/09/23 10:29:33;;;;;;;1.80;1.70;;;15.70;99.90;;;;;;5067266;28;20896;-72
2022/09/23 10:32:29;;;;;;;1.40;1.40;;;15.70;99.90;;;;;;5067215;28;20306;-72
2022/09/23 10:35:01;;;;;;;1.77;1.67;;;15.80;99.90;;;;;;5067210;28;20195;-72
2022/09/23 10:37:33;;;;;;;16.80;3.37;;;15.90;99.90;;;;;;5066875;28;20196;-72
2022/09/23 10:48:54;;;;;;;1.30;1.20;;;16.20;99.90;;;;;;5066704;28;20711;-72
2022/09/23 10:51:26;;;;;;;1.57;1.47;;;16.20;99.90;;;;;;5066868;28;20215;-72
2022/09/23 10:54:01;;;;;;;1.57;1.30;;;16.20;99.90;;;;;;5065093;28;20200;-72
2022/09/23 10:56:34;;;;;;;1.17;1.17;;;16.30;99.90;;;;;;5047019;28;20226;-71
2022/09/23 10:59:20;;;;;;;1.30;1.20;;;16.40;99.90;;;;;;5047006;28;20218;-72
2022/09/23 11:02:01;;;;;;;1.30;1.20;;;16.50;99.90;;;;;;5046556;28;20557;-71
2022/09/23 11:05:07;;;;;;;1.20;1.10;;;16.50;99.90;;;;;;5046871;28;20567;-72
2022/09/23 11:07:40;;;;;;;1.40;1.40;;;16.50;99.90;;;;;;5046944;28;20196;-72
2022/09/23 11:10:39;;;;;;;1.20;1.20;;;16.60;99.90;;;;;;5046942;28;20219;-72
2022/09/23 11:13:11;;;;;;;1.13;1.03;;;16.60;99.90;;;;;;5044170;28;20211;-72
2022/09/23 11:15:50;;;;;;;1.00;1.00;;;16.60;99.90;;;;;;5046167;28;20640;-72
2022/09/23 11:18:36;;;;;;;1.37;1.27;;;16.70;99.90;;;;;;5046327;28;20204;-72
2022/09/23 11:21:22;;;;;;;1.37;1.07;;;16.90;99.90;;;;;;5046239;28;20635;-72
2022/09/23 11:24:27;;;;;;;2.70;1.40;;;17.00;99.90;;;;;;5046553;28;20244;-72
2022/09/23 11:27:02;;;;;;;1.43;1.33;;;17.10;99.90;;;;;;5011238;28;20281;-72
2022/09/23 11:29:50;;;;;;;1.37;1.23;;;17.20;99.90;;;;;;5050357;28;20564;-72
2022/09/23 11:32:37;;;;;;;2.67;1.30;;;17.20;99.90;;;;;;5050117;28;20227;-72
2022/09/23 11:35:15;;;;;;;1.40;1.30;;;17.20;99.90;;;;;;5050155;28;20199;-72
2022/09/23 11:37:47;;;;;;;1.20;1.20;;;17.10;99.90;;;;;;5050039;28;20211;-72
2022/09/23 11:40:20;;;;;;;1.37;1.27;;;17.20;99.90;;;;;;5049907;28;20636;-72
2022/09/23 11:42:53;;;;;;;1.50;1.40;;;17.30;99.90;;;;;;5050162;28;20200;-72
2022/09/23 11:45:25;;;;;;;0.93;0.93;;;17.30;99.90;;;;;;5050342;28;20215;-72
2022/09/23 11:47:55;;;;;;;1.10;1.10;;;17.40;99.90;;;;;;5050282;28;20203;-72
2022/09/23 11:50:28;;;;;;;1.20;1.10;;;17.50;99.90;;;;;;5049378;28;20201;-72
2022/09/23 11:53:02;;;;;;;1.10;1.10;;;17.60;99.90;;;;;;5049722;28;20201;-72
2022/09/23 11:55:33;;;;;;;1.07;1.07;;;17.70;99.90;;;;;;5064880;28;20215;-72
2022/09/23 11:58:06;;;;;;;0.90;0.90;;;17.80;99.90;;;;;;5065799;28;20203;-72
2022/09/23 12:00:37;;;;;;;1.17;1.17;;;18.00;99.90;;;;;;5049679;28;20188;-72
2022/09/23 12:03:09;;;;;;;1.20;1.10;;;18.10;99.90;;;;;;5049492;28;20201;-72
2022/09/23 12:05:39;;;;;;;1.50;1.33;;;18.20;99.50;;;;;;5049599;28;20197;-72
2022/09/23 12:08:17;;;;;;;1.27;1.17;;;18.40;99.70;;;;;;5049611;28;20208;-72
2022/09/23 12:10:51;;;;;;;1.20;1.20;;;18.60;99.90;;;;;;5050211;28;20250;-72
2022/09/23 12:13:24;;;;;;;1.23;1.00;;;18.70;99.60;;;;;;5047419;28;20200;-72
2022/09/23 12:16:08;;;;;;;1.17;1.17;;;18.70;99.50;;;;;;5049497;28;20200;-72
2022/09/23 12:18:54;;;;;;;2.40;1.30;;;18.80;99.40;;;;;;5049293;28;20646;-72
2022/09/23 12:21:42;;;;;;;3.00;1.10;;;18.90;99.30;;;;;;5049517;28;20200;-72
2022/09/23 12:24:32;;;;;;;2.77;1.20;;;19.00;98.20;;;;;;5052855;28;20231;-72
2022/09/23 12:27:04;;;;;;;1.13;1.03;;;19.10;98.40;;;;;;5067172;28;20204;-72
2022/09/23 12:29:32;;;;;;;1.03;1.00;;;19.20;98.60;;;;;;5069303;28;20670;-72
2022/09/23 12:32:00;;;;;;;1.13;1.10;;;19.30;97.60;;;;;;5069422;28;20585;-72
2022/09/23 12:34:30;;;;;;;1.10;1.10;;;19.30;97.80;;;;;;5069369;28;20257;-72
2022/09/23 12:37:03;;;;;;;1.10;0.93;;;19.40;98.10;;;;;;5069642;28;20192;-72
2022/09/23 12:39:36;;;;;;;0.90;0.77;;;19.40;97.60;;;;;;5069072;28;20599;-72
2022/09/23 12:42:05;;;;;;;1.40;0.87;;;19.50;97.00;;;;;;5069334;28;20192;-72
2022/09/23 12:44:38;;;;;;;1.00;1.00;;;19.60;95.50;;;;;;5068705;28;20584;-71
2022/09/23 12:47:35;;;;;;;0.82;0.82;;;19.70;95.30;;;;;;5060735;28;20219;-72
2022/09/23 12:50:03;;;;;;;0.93;0.93;;;19.70;95.50;;;;;;5048977;28;20197;-71
2022/09/23 12:52:34;;;;;;;0.90;0.90;;;19.80;96.00;;;;;;5048545;28;20619;-71
2022/09/23 12:55:45;;;;;;;2.03;0.90;;;19.80;96.00;;;;;;5049638;28;20208;-71
2022/09/23 12:58:44;;;;;;;0.85;0.70;;;19.80;96.20;;;;;;5048622;28;20200;-71
2022/09/23 13:01:18;;;;;;;1.00;1.00;;;19.80;95.30;;;;;;5038014;28;20214;-71
2022/09/23 13:06:38;;;;;;;1.50;1.03;;;19.70;95.20;;;;;;5048236;28;20195;-72
2022/09/23 13:09:09;;;;;;;1.10;1.00;;;19.60;95.00;;;;;;5046110;28;20559;-72
2022/09/23 13:11:40;;;;;;;0.80;0.80;;;19.50;95.20;;;;;;5028494;28;20590;-71
2022/09/23 13:14:07;;;;;;;1.53;0.90;;;19.70;96.40;;;;;;5043169;28;20196;-72
2022/09/23 13:16:37;;;;;;;0.80;0.80;;;19.80;96.50;;;;;;5048074;28;20224;-72
2022/09/23 13:19:06;;;;;;;0.80;0.80;;;19.90;95.90;;;;;;5048273;28;20211;-71
2022/09/23 13:22:01;;;;;;;1.20;1.00;;;20.10;94.90;;;;;;5048250;28;20196;-71
2022/09/23 13:24:41;;;;;;;0.80;0.80;;;20.20;94.50;;;;;;5031618;28;20243;-72
2022/09/23 13:27:17;;;;;;;1.67;0.75;;;20.30;94.90;;;;;;5048022;28;20655;-72